createdAt,value
2017-09-28T00:00:02.480Z,12.05
2017-09-28T00:00:06.577Z,12.04
2017-09-28T00:00:11.040Z,12.04
2017-09-28T00:00:14.874Z,12.04
2017-09-28T00:00:19.084Z,12.04
2017-09-28T00:00:23.169Z,12.03
2017-09-28T00:00:27.253Z,12.03
2017-09-28T00:00:31.461Z,12.04
2017-09-28T00:00:35.679Z,12.04
2017-09-28T00:00:39.767Z,12.04
2017-09-28T00:00:43.847Z,12.04
2017-09-28T00:00:48.058Z,12.04
2017-09-28T00:00:52.270Z,12.03
2017-09-28T00:00:56.358Z,12.04
2017-09-28T00:01:00.442Z,12.03
2017-09-28T00:01:04.908Z,12.04
2017-09-28T00:01:09.245Z,12.03
2017-09-28T00:01:13.454Z,12.04
2017-09-28T00:01:17.910Z,12.04
2017-09-28T00:01:22.121Z,12.03
2017-09-28T00:01:26.200Z,12.03
2017-09-28T00:01:30.161Z,12.03
2017-09-28T00:01:34.379Z,12.03
2017-09-28T00:01:38.607Z,12.04
2017-09-28T00:01:42.567Z,12.03
2017-09-28T00:01:46.653Z,12.03
2017-09-28T00:01:50.736Z,12.03
2017-09-28T00:01:54.946Z,12.04
2017-09-28T00:01:58.911Z,12.04
2017-09-28T00:02:03.022Z,12.04
2017-09-28T00:02:07.242Z,12.03
2017-09-28T00:02:11.703Z,12.03
2017-09-28T00:02:16.168Z,12.04
2017-09-28T00:02:20.514Z,12.05
2017-09-28T00:02:24.604Z,12.04
2017-09-28T00:02:28.818Z,12.04
2017-09-28T00:02:32.906Z,12.04
2017-09-28T00:02:37.130Z,12.04
2017-09-28T00:02:41.605Z,12.04
2017-09-28T00:02:45.689Z,12.05
2017-09-28T00:02:50.151Z,12.03
2017-09-28T00:02:54.114Z,12.04
2017-09-28T00:02:58.197Z,12.04
2017-09-28T00:03:02.027Z,12.04
2017-09-28T00:03:06.112Z,12.04
2017-09-28T00:03:10.194Z,12.04
2017-09-28T00:03:14.665Z,12.04
2017-09-28T00:03:18.753Z,12.04
2017-09-28T00:03:22.977Z,12.04
2017-09-28T00:03:27.442Z,12.04
2017-09-28T00:03:31.782Z,12.05
2017-09-28T00:03:35.872Z,12.05
2017-09-28T00:03:40.218Z,12.04
2017-09-28T00:03:44.302Z,12.04
2017-09-28T00:03:48.520Z,12.04
2017-09-28T00:03:52.483Z,12.04
2017-09-28T00:03:56.697Z,12.04
2017-09-28T00:04:00.651Z,12.04
2017-09-28T00:04:04.744Z,12.04
2017-09-28T00:04:08.836Z,12.04
2017-09-28T00:04:13.046Z,12.04
2017-09-28T00:04:17.011Z,12.04
2017-09-28T00:04:21.222Z,12.04
2017-09-28T00:04:25.437Z,12.04
2017-09-28T00:04:29.526Z,12.04
2017-09-28T00:04:33.484Z,12.03
2017-09-28T00:04:37.580Z,12.04
2017-09-28T00:04:42.040Z,12.04
2017-09-28T00:04:46.253Z,12.04
2017-09-28T00:04:50.475Z,12.03
2017-09-28T00:04:54.859Z,12.03
2017-09-28T00:04:58.823Z,12.04
2017-09-28T00:05:03.033Z,12.04
2017-09-28T00:05:07.038Z,12.04
2017-09-28T00:05:11.249Z,12.03
2017-09-28T00:05:15.456Z,12.03
2017-09-28T00:05:19.542Z,12.04
2017-09-28T00:05:23.752Z,12.03
2017-09-28T00:05:27.711Z,12.03
2017-09-28T00:05:31.801Z,12.04
2017-09-28T00:05:36.144Z,12.02
2017-09-28T00:05:40.499Z,12.03
2017-09-28T00:05:44.580Z,12.02
2017-09-28T00:05:48.788Z,12.02
2017-09-28T00:05:53.006Z,12.03
2017-09-28T00:05:56.971Z,12.03
2017-09-28T00:06:01.185Z,12.02
2017-09-28T00:06:05.530Z,12.03
2017-09-28T00:06:09.997Z,12.03
2017-09-28T00:06:14.079Z,12.03
2017-09-28T00:06:18.286Z,12.02
2017-09-28T00:06:22.374Z,12.02
2017-09-28T00:06:26.709Z,12.02
2017-09-28T00:06:30.918Z,12.03
2017-09-28T00:06:35.127Z,12.01
2017-09-28T00:06:39.337Z,12.02
2017-09-28T00:06:43.293Z,12.02
2017-09-28T00:06:47.501Z,12.02
2017-09-28T00:06:51.841Z,12.01
2017-09-28T00:06:56.057Z,12.01
2017-09-28T00:06:59.892Z,12.01
2017-09-28T00:07:04.402Z,12
2017-09-28T00:07:08.489Z,12.01
2017-09-28T00:07:12.839Z,12.01
2017-09-28T00:07:16.928Z,12.01
2017-09-28T00:07:21.140Z,12
2017-09-28T00:07:25.359Z,12.01
2017-09-28T00:07:29.701Z,12.01
2017-09-28T00:07:33.922Z,12.01
2017-09-28T00:07:38.134Z,12
2017-09-28T00:07:41.968Z,12
2017-09-28T00:07:46.052Z,12
2017-09-28T00:07:50.385Z,12
2017-09-28T00:07:54.472Z,12
2017-09-28T00:07:58.306Z,12
2017-09-28T00:08:02.548Z,12
2017-09-28T00:08:06.631Z,12
2017-09-28T00:08:10.592Z,12
2017-09-28T00:08:14.552Z,11.99
2017-09-28T00:08:18.642Z,12
2017-09-28T00:08:22.854Z,11.99
2017-09-28T00:08:27.206Z,11.99
2017-09-28T00:08:31.463Z,11.99
2017-09-28T00:08:35.422Z,11.99
2017-09-28T00:08:39.378Z,11.99
2017-09-28T00:08:43.347Z,11.99
2017-09-28T00:08:47.436Z,11.99
2017-09-28T00:08:51.398Z,11.99
2017-09-28T00:08:55.864Z,11.99
2017-09-28T00:08:59.948Z,11.98
2017-09-28T00:09:04.302Z,11.98
2017-09-28T00:09:08.642Z,11.99
2017-09-28T00:09:13.103Z,11.97
2017-09-28T00:09:17.325Z,11.98
2017-09-28T00:09:21.662Z,11.98
2017-09-28T00:09:25.744Z,11.97
2017-09-28T00:09:29.955Z,11.98
2017-09-28T00:09:34.173Z,11.98
2017-09-28T00:09:38.132Z,11.98
2017-09-28T00:09:42.223Z,11.97
2017-09-28T00:09:46.439Z,11.97
2017-09-28T00:09:50.910Z,11.98
2017-09-28T00:09:54.875Z,11.98
2017-09-28T00:09:58.709Z,11.97
2017-09-28T00:10:02.797Z,11.97
2017-09-28T00:10:07.005Z,11.96
2017-09-28T00:10:11.341Z,11.97
2017-09-28T00:10:15.556Z,11.97
2017-09-28T00:10:19.645Z,11.96
2017-09-28T00:10:23.734Z,11.96
2017-09-28T00:10:27.820Z,11.96
2017-09-28T00:10:31.782Z,11.96
2017-09-28T00:10:36.126Z,11.96
2017-09-28T00:10:40.209Z,11.96
2017-09-28T00:10:44.551Z,11.96
2017-09-28T00:10:48.646Z,11.96
2017-09-28T00:10:52.730Z,11.96
2017-09-28T00:10:56.696Z,11.96
2017-09-28T00:11:00.662Z,11.95
2017-09-28T00:11:05.127Z,11.95
2017-09-28T00:11:09.221Z,11.95
2017-09-28T00:11:13.314Z,11.95
2017-09-28T00:11:17.527Z,11.95
2017-09-28T00:11:21.747Z,11.95
2017-09-28T00:11:25.840Z,11.94
2017-09-28T00:11:29.805Z,11.95
2017-09-28T00:11:34.021Z,11.95
2017-09-28T00:11:38.482Z,11.94
2017-09-28T00:11:42.691Z,11.94
2017-09-28T00:11:46.654Z,11.94
2017-09-28T00:11:50.865Z,11.94
2017-09-28T00:11:55.098Z,11.93
2017-09-28T00:11:59.188Z,11.94
2017-09-28T00:12:03.389Z,11.92
2017-09-28T00:12:07.730Z,11.93
2017-09-28T00:12:11.946Z,11.92
2017-09-28T00:12:15.784Z,11.91
2017-09-28T00:12:19.990Z,11.93
2017-09-28T00:12:24.081Z,11.91
2017-09-28T00:12:28.052Z,11.92
2017-09-28T00:12:32.144Z,11.92
2017-09-28T00:12:35.984Z,11.92
2017-09-28T00:12:40.450Z,11.91
2017-09-28T00:12:44.806Z,11.92
2017-09-28T00:12:48.641Z,11.92
2017-09-28T00:12:52.604Z,11.91
2017-09-28T00:12:57.062Z,11.92
2017-09-28T00:13:01.027Z,11.91
2017-09-28T00:13:05.540Z,11.91
2017-09-28T00:13:09.752Z,11.9
2017-09-28T00:13:13.969Z,11.91
2017-09-28T00:13:17.930Z,11.91
2017-09-28T00:13:22.387Z,11.9
2017-09-28T00:13:26.724Z,11.9
2017-09-28T00:13:30.824Z,11.9
2017-09-28T00:13:35.167Z,11.9
2017-09-28T00:13:39.511Z,11.91
2017-09-28T00:13:43.598Z,11.91
2017-09-28T00:13:47.682Z,11.9
2017-09-28T00:13:52.275Z,11.89
2017-09-28T00:13:56.492Z,11.9
2017-09-28T00:14:00.325Z,11.9
2017-09-28T00:14:04.793Z,11.89
2017-09-28T00:14:08.878Z,11.89
2017-09-28T00:14:13.094Z,11.89
2017-09-28T00:14:17.431Z,11.9
2017-09-28T00:14:21.700Z,11.89
2017-09-28T00:14:25.788Z,11.9
2017-09-28T00:14:30.124Z,11.89
2017-09-28T00:14:34.464Z,11.9
2017-09-28T00:14:38.812Z,11.9
2017-09-28T00:14:42.893Z,11.89
2017-09-28T00:14:47.105Z,11.89
2017-09-28T00:14:51.194Z,11.9
2017-09-28T00:14:55.281Z,11.89
2017-09-28T00:14:59.489Z,11.89
2017-09-28T00:15:03.578Z,11.89
2017-09-28T00:15:07.663Z,11.9
2017-09-28T00:15:11.748Z,11.89
2017-09-28T00:15:15.712Z,11.89
2017-09-28T00:15:19.802Z,11.89
2017-09-28T00:15:23.895Z,11.89
2017-09-28T00:15:27.977Z,11.89
2017-09-28T00:15:32.193Z,11.89
2017-09-28T00:15:36.528Z,11.88
2017-09-28T00:15:40.485Z,11.88
2017-09-28T00:15:44.689Z,11.89
2017-09-28T00:15:48.894Z,11.89
2017-09-28T00:15:53.113Z,11.89
2017-09-28T00:15:57.326Z,11.89
2017-09-28T00:16:01.289Z,11.89
2017-09-28T00:16:05.751Z,11.89
2017-09-28T00:16:09.711Z,11.88
2017-09-28T00:16:13.672Z,11.88
2017-09-28T00:16:18.133Z,11.89
2017-09-28T00:16:22.480Z,11.88
2017-09-28T00:16:26.444Z,11.89
2017-09-28T00:16:30.534Z,11.88
2017-09-28T00:16:34.748Z,11.89
2017-09-28T00:16:38.958Z,11.88
2017-09-28T00:16:42.922Z,11.89
2017-09-28T00:16:47.141Z,11.89
2017-09-28T00:16:51.351Z,11.89
2017-09-28T00:16:55.562Z,11.89
2017-09-28T00:16:59.646Z,11.89
2017-09-28T00:17:04.412Z,11.88
2017-09-28T00:17:08.755Z,11.89
2017-09-28T00:17:12.838Z,11.88
2017-09-28T00:17:16.919Z,11.88
2017-09-28T00:17:21.009Z,11.87
2017-09-28T00:17:24.844Z,11.88
2017-09-28T00:17:28.927Z,11.88
2017-09-28T00:17:33.142Z,11.88
2017-09-28T00:17:37.352Z,11.89
2017-09-28T00:17:41.566Z,11.89
2017-09-28T00:17:46.032Z,11.89
2017-09-28T00:17:50.128Z,11.89
2017-09-28T00:17:54.213Z,11.89
2017-09-28T00:17:58.302Z,11.89
2017-09-28T00:18:02.765Z,11.89
2017-09-28T00:18:06.852Z,11.89
2017-09-28T00:18:10.815Z,11.89
2017-09-28T00:18:14.774Z,11.9
2017-09-28T00:18:19.128Z,11.9
2017-09-28T00:18:23.501Z,11.9
2017-09-28T00:18:27.588Z,11.89
2017-09-28T00:18:31.424Z,11.89
2017-09-28T00:18:35.633Z,11.89
2017-09-28T00:18:39.971Z,11.89
2017-09-28T00:18:43.932Z,11.9
2017-09-28T00:18:48.279Z,11.9
2017-09-28T00:18:52.498Z,11.89
2017-09-28T00:18:56.592Z,11.9
2017-09-28T00:19:00.678Z,11.9
2017-09-28T00:19:04.890Z,11.9
2017-09-28T00:19:08.976Z,11.9
2017-09-28T00:19:13.205Z,11.91
2017-09-28T00:19:17.415Z,11.9
2017-09-28T00:19:21.501Z,11.91
2017-09-28T00:19:25.713Z,11.9
2017-09-28T00:19:29.926Z,11.9
2017-09-28T00:19:34.140Z,11.91
2017-09-28T00:19:38.109Z,11.91
2017-09-28T00:19:42.194Z,11.91
2017-09-28T00:19:46.408Z,11.9
2017-09-28T00:19:50.621Z,11.91
2017-09-28T00:19:54.715Z,11.91
2017-09-28T00:19:59.074Z,11.91
2017-09-28T00:20:03.289Z,11.92
2017-09-28T00:20:07.382Z,11.92
2017-09-28T00:20:11.468Z,11.92
2017-09-28T00:20:15.798Z,11.94
2017-09-28T00:20:20.138Z,11.92
2017-09-28T00:20:24.471Z,11.93
2017-09-28T00:20:28.427Z,11.92
2017-09-28T00:20:32.639Z,11.93
2017-09-28T00:20:36.978Z,11.93
2017-09-28T00:20:41.317Z,11.93
2017-09-28T00:20:45.563Z,11.93
2017-09-28T00:20:49.907Z,11.93
2017-09-28T00:20:53.992Z,11.94
2017-09-28T00:20:58.331Z,11.93
2017-09-28T00:21:02.469Z,11.93
2017-09-28T00:21:06.808Z,11.93
2017-09-28T00:21:11.024Z,11.93
2017-09-28T00:21:14.988Z,11.94
2017-09-28T00:21:18.950Z,11.94
2017-09-28T00:21:23.161Z,11.93
2017-09-28T00:21:27.497Z,11.94
2017-09-28T00:21:31.713Z,11.94
2017-09-28T00:21:35.923Z,11.95
2017-09-28T00:21:40.257Z,11.94
2017-09-28T00:21:44.342Z,11.94
2017-09-28T00:21:48.556Z,11.95
2017-09-28T00:21:52.771Z,11.95
2017-09-28T00:21:56.737Z,11.94
2017-09-28T00:22:00.826Z,11.95
2017-09-28T00:22:05.142Z,11.94
2017-09-28T00:22:09.224Z,11.94
2017-09-28T00:22:13.438Z,11.95
2017-09-28T00:22:17.533Z,11.94
2017-09-28T00:22:21.632Z,11.94
2017-09-28T00:22:25.842Z,11.94
2017-09-28T00:22:30.299Z,11.96
2017-09-28T00:22:34.635Z,11.95
2017-09-28T00:22:38.844Z,11.94
2017-09-28T00:22:42.676Z,11.95
2017-09-28T00:22:46.889Z,11.95
2017-09-28T00:22:50.850Z,11.95
2017-09-28T00:22:55.058Z,11.94
2017-09-28T00:22:59.140Z,11.95
2017-09-28T00:23:03.430Z,11.95
2017-09-28T00:23:07.649Z,11.95
2017-09-28T00:23:11.605Z,11.95
2017-09-28T00:23:15.690Z,11.95
2017-09-28T00:23:19.654Z,11.95
2017-09-28T00:23:23.738Z,11.95
2017-09-28T00:23:27.953Z,11.95
2017-09-28T00:23:32.167Z,11.95
2017-09-28T00:23:36.515Z,11.95
2017-09-28T00:23:40.732Z,11.95
2017-09-28T00:23:44.822Z,11.95
2017-09-28T00:23:48.808Z,11.94
2017-09-28T00:23:52.907Z,11.95
2017-09-28T00:23:56.992Z,11.95
2017-09-28T00:24:00.825Z,11.95
2017-09-28T00:24:04.665Z,11.94
2017-09-28T00:24:09.038Z,11.95
2017-09-28T00:24:13.012Z,11.95
2017-09-28T00:24:16.852Z,11.95
2017-09-28T00:24:21.068Z,11.95
2017-09-28T00:24:25.149Z,11.95
2017-09-28T00:24:29.487Z,11.96
2017-09-28T00:24:33.821Z,11.96
2017-09-28T00:24:38.292Z,11.95
2017-09-28T00:24:42.377Z,11.95
2017-09-28T00:24:46.458Z,11.95
2017-09-28T00:24:50.796Z,11.96
2017-09-28T00:24:55.017Z,11.95
2017-09-28T00:24:59.109Z,11.95
2017-09-28T00:25:03.322Z,11.95
2017-09-28T00:25:07.539Z,11.95
2017-09-28T00:25:11.745Z,11.96
2017-09-28T00:25:15.956Z,11.95
2017-09-28T00:25:20.042Z,11.95
2017-09-28T00:25:24.396Z,11.95
2017-09-28T00:25:28.609Z,11.94
2017-09-28T00:25:32.945Z,11.95
2017-09-28T00:25:37.027Z,11.95
2017-09-28T00:25:41.241Z,11.95
2017-09-28T00:25:45.452Z,11.95
2017-09-28T00:25:49.409Z,11.95
2017-09-28T00:25:53.500Z,11.95
2017-09-28T00:25:57.597Z,11.95
2017-09-28T00:26:01.555Z,11.95
2017-09-28T00:26:05.863Z,11.95
2017-09-28T00:26:09.950Z,11.95
2017-09-28T00:26:14.299Z,11.95
2017-09-28T00:26:18.503Z,11.95
2017-09-28T00:26:22.837Z,11.95
2017-09-28T00:26:27.050Z,11.95
2017-09-28T00:26:31.013Z,11.93
2017-09-28T00:27:11.394Z,11.95
2017-09-28T00:27:15.357Z,11.94
2017-09-28T00:27:19.695Z,11.93
2017-09-28T00:27:23.909Z,11.94
2017-09-28T00:27:28.249Z,11.94
2017-09-28T00:27:32.335Z,11.92
2017-09-28T00:27:36.424Z,11.93
2017-09-28T00:27:40.263Z,11.94
2017-09-28T00:27:44.347Z,11.93
2017-09-28T00:27:48.807Z,11.94
2017-09-28T00:27:52.902Z,11.94
2017-09-28T00:27:57.114Z,11.93
2017-09-28T00:28:01.325Z,11.93
2017-09-28T00:28:05.641Z,11.92
2017-09-28T00:28:10.100Z,11.93
2017-09-28T00:28:14.065Z,11.93
2017-09-28T00:28:18.400Z,11.93
2017-09-28T00:28:22.364Z,11.92
2017-09-28T00:28:26.702Z,11.92
2017-09-28T00:28:30.917Z,11.93
2017-09-28T00:28:35.130Z,11.92
2017-09-28T00:28:39.345Z,11.93
2017-09-28T00:28:43.688Z,11.92
2017-09-28T00:28:47.657Z,11.91
2017-09-28T00:28:51.744Z,11.91
2017-09-28T00:28:55.708Z,11.92
2017-09-28T00:28:59.925Z,11.9
2017-09-28T00:29:04.140Z,11.91
2017-09-28T00:29:08.231Z,11.92
2017-09-28T00:29:12.572Z,11.91
2017-09-28T00:29:16.787Z,11.91
2017-09-28T00:29:21.134Z,11.91
2017-09-28T00:29:25.231Z,11.91
2017-09-28T00:29:29.320Z,11.92
2017-09-28T00:29:33.536Z,11.91
2017-09-28T00:29:37.746Z,11.92
2017-09-28T00:29:41.960Z,11.91
2017-09-28T00:29:46.053Z,11.9
2017-09-28T00:29:50.262Z,11.91
2017-09-28T00:29:54.350Z,11.91
2017-09-28T00:29:58.686Z,11.91
2017-09-28T00:30:03.009Z,11.9
2017-09-28T00:30:07.228Z,11.91
2017-09-28T00:30:11.189Z,11.91
2017-09-28T00:30:15.403Z,11.91
2017-09-28T00:30:19.363Z,11.9
2017-09-28T00:30:23.456Z,11.91
2017-09-28T00:30:27.668Z,11.9
2017-09-28T00:30:31.882Z,11.9
2017-09-28T00:30:35.968Z,11.9
2017-09-28T00:30:40.434Z,11.9
2017-09-28T00:30:44.528Z,11.9
2017-09-28T00:30:48.614Z,11.9
2017-09-28T00:30:52.702Z,11.9
2017-09-28T00:30:57.165Z,11.9
2017-09-28T00:31:01.012Z,11.9
2017-09-28T00:31:05.471Z,11.89
2017-09-28T00:31:09.692Z,11.88
2017-09-28T00:31:13.942Z,11.89
2017-09-28T00:31:18.286Z,11.89
2017-09-28T00:31:22.371Z,11.89
2017-09-28T00:31:26.843Z,11.89
2017-09-28T00:31:31.213Z,11.89
2017-09-28T00:31:35.547Z,11.89
2017-09-28T00:31:39.884Z,11.88
2017-09-28T00:31:44.099Z,11.88
2017-09-28T00:31:47.938Z,11.89
2017-09-28T00:31:52.023Z,11.88
2017-09-28T00:31:56.357Z,11.88
2017-09-28T00:32:00.445Z,11.88
2017-09-28T00:32:04.836Z,11.88
2017-09-28T00:32:09.054Z,11.87
2017-09-28T00:32:13.268Z,11.88
2017-09-28T00:32:17.490Z,11.88
2017-09-28T00:32:21.702Z,11.87
2017-09-28T00:32:25.793Z,11.87
2017-09-28T00:32:30.010Z,11.87
2017-09-28T00:32:34.475Z,11.87
2017-09-28T00:32:38.940Z,11.87
2017-09-28T00:32:43.032Z,11.86
2017-09-28T00:32:47.372Z,11.86
2017-09-28T00:32:51.460Z,11.87
2017-09-28T00:32:55.803Z,11.86
2017-09-28T00:33:00.188Z,11.86
2017-09-28T00:33:04.154Z,11.87
2017-09-28T00:33:08.617Z,11.86
2017-09-28T00:33:12.955Z,11.87
2017-09-28T00:33:17.051Z,11.85
2017-09-28T00:33:21.272Z,11.86
2017-09-28T00:33:25.355Z,11.85
2017-09-28T00:33:29.701Z,11.85
2017-09-28T00:33:33.918Z,11.84
2017-09-28T00:33:37.999Z,11.84
2017-09-28T00:33:41.955Z,11.83
2017-09-28T00:33:46.298Z,11.83
2017-09-28T00:33:50.529Z,11.85
2017-09-28T00:33:54.615Z,11.84
2017-09-28T00:33:58.581Z,11.83
2017-09-28T00:34:02.815Z,11.83
2017-09-28T00:34:07.041Z,11.82
2017-09-28T00:34:11.254Z,11.83
2017-09-28T00:34:15.595Z,11.82
2017-09-28T00:34:20.059Z,11.82
2017-09-28T00:34:24.273Z,11.82
2017-09-28T00:34:28.714Z,11.82
2017-09-28T00:34:33.057Z,11.81
2017-09-28T00:34:37.147Z,11.8
2017-09-28T00:34:41.238Z,11.81
2017-09-28T00:34:45.326Z,11.81
2017-09-28T00:34:49.417Z,11.8
2017-09-28T00:34:53.507Z,11.8
2017-09-28T00:34:57.594Z,11.79
2017-09-28T00:35:02.065Z,11.8
2017-09-28T00:35:06.277Z,11.79
2017-09-28T00:35:10.618Z,11.8
2017-09-28T00:35:14.829Z,11.78
2017-09-28T00:35:18.919Z,11.78
2017-09-28T00:35:23.008Z,11.78
2017-09-28T00:35:27.223Z,11.78
2017-09-28T00:35:31.438Z,11.78
2017-09-28T00:35:35.646Z,11.78
2017-09-28T00:35:39.863Z,11.78
2017-09-28T00:35:44.328Z,11.77
2017-09-28T00:35:48.160Z,11.77
2017-09-28T00:35:52.245Z,11.77
2017-09-28T00:35:56.451Z,11.76
2017-09-28T00:36:00.665Z,11.76
2017-09-28T00:36:05.225Z,11.76
2017-09-28T00:36:09.394Z,11.75
2017-09-28T00:36:13.475Z,11.75
2017-09-28T00:36:17.557Z,11.76
2017-09-28T00:36:21.900Z,11.75
2017-09-28T00:36:25.982Z,11.75
2017-09-28T00:36:29.939Z,11.75
2017-09-28T00:36:34.151Z,11.75
2017-09-28T00:36:38.361Z,11.75
2017-09-28T00:36:42.580Z,11.74
2017-09-28T00:36:46.789Z,11.74
2017-09-28T00:36:50.877Z,11.74
2017-09-28T00:36:55.214Z,11.72
2017-09-28T00:36:59.676Z,11.73
2017-09-28T00:37:04.263Z,11.73
2017-09-28T00:37:08.472Z,11.73
2017-09-28T00:37:12.553Z,11.72
2017-09-28T00:37:16.519Z,11.72
2017-09-28T00:37:20.604Z,11.72
2017-09-28T00:37:24.820Z,11.72
2017-09-28T00:37:29.036Z,11.72
2017-09-28T00:37:33.380Z,11.71
2017-09-28T00:37:37.712Z,11.71
2017-09-28T00:37:41.918Z,11.7
2017-09-28T00:37:46.253Z,11.71
2017-09-28T00:37:50.466Z,11.71
2017-09-28T00:37:54.682Z,11.69
2017-09-28T00:37:59.016Z,11.7
2017-09-28T00:38:03.352Z,11.7
2017-09-28T00:38:07.569Z,11.69
2017-09-28T00:38:11.660Z,11.69
2017-09-28T00:38:15.499Z,11.7
2017-09-28T00:38:19.459Z,11.68
2017-09-28T00:38:23.674Z,11.68
2017-09-28T00:38:27.761Z,11.68
2017-09-28T00:38:32.092Z,11.68
2017-09-28T00:38:36.549Z,11.68
2017-09-28T00:38:40.756Z,11.68
2017-09-28T00:38:44.849Z,11.68
2017-09-28T00:38:49.064Z,11.67
2017-09-28T00:38:53.279Z,11.67
2017-09-28T00:38:57.620Z,11.68
2017-09-28T00:39:01.961Z,11.67
2017-09-28T00:39:06.185Z,11.66
2017-09-28T00:39:10.519Z,11.66
2017-09-28T00:39:14.745Z,11.67
2017-09-28T00:39:18.837Z,11.66
2017-09-28T00:39:22.925Z,11.66
2017-09-28T00:39:27.396Z,11.65
2017-09-28T00:39:31.359Z,11.65
2017-09-28T00:39:35.850Z,11.65
2017-09-28T00:39:40.061Z,11.65
2017-09-28T00:39:44.155Z,11.65
2017-09-28T00:39:48.370Z,11.64
2017-09-28T00:39:52.582Z,11.64
2017-09-28T00:39:56.792Z,11.64
2017-09-28T00:40:01.009Z,11.64
2017-09-28T00:40:05.573Z,11.64
2017-09-28T00:40:09.778Z,11.62
2017-09-28T00:40:13.866Z,11.63
2017-09-28T00:40:17.952Z,11.63
2017-09-28T00:40:22.284Z,11.63
2017-09-28T00:40:26.497Z,11.62
2017-09-28T00:40:30.840Z,11.62
2017-09-28T00:40:34.929Z,11.61
2017-09-28T00:40:39.146Z,11.61
2017-09-28T00:40:43.483Z,11.61
2017-09-28T00:40:47.702Z,11.6
2017-09-28T00:40:51.913Z,11.61
2017-09-28T00:40:56.126Z,11.61
2017-09-28T00:41:00.215Z,11.6
2017-09-28T00:41:04.455Z,11.6
2017-09-28T00:41:08.800Z,11.59
2017-09-28T00:41:13.388Z,11.6
2017-09-28T00:41:17.600Z,11.59
2017-09-28T00:41:21.822Z,11.59
2017-09-28T00:41:25.906Z,11.59
2017-09-28T00:41:29.745Z,11.59
2017-09-28T00:41:33.831Z,11.58
2017-09-28T00:41:38.181Z,11.58
2017-09-28T00:41:42.394Z,11.58
2017-09-28T00:41:46.604Z,11.57
2017-09-28T00:41:50.693Z,11.57
2017-09-28T00:41:54.781Z,11.57
2017-09-28T00:41:58.874Z,11.57
2017-09-28T00:42:03.213Z,11.56
2017-09-28T00:42:07.199Z,11.57
2017-09-28T00:42:11.281Z,11.56
2017-09-28T00:42:15.615Z,11.56
2017-09-28T00:42:19.819Z,11.56
2017-09-28T00:42:24.033Z,11.55
2017-09-28T00:42:28.250Z,11.55
2017-09-28T00:42:32.587Z,11.55
2017-09-28T00:42:36.676Z,11.56
2017-09-28T00:42:40.759Z,11.54
2017-09-28T00:42:44.968Z,11.54
2017-09-28T00:42:49.053Z,11.55
2017-09-28T00:42:53.014Z,11.54
2017-09-28T00:42:56.977Z,11.53
2017-09-28T00:43:01.068Z,11.53
2017-09-28T00:43:05.405Z,11.53
2017-09-28T00:43:09.238Z,11.53
2017-09-28T00:43:13.574Z,11.52
2017-09-28T00:43:17.656Z,11.52
2017-09-28T00:43:21.996Z,11.52
2017-09-28T00:43:26.341Z,11.52
2017-09-28T00:43:30.681Z,11.51
2017-09-28T00:43:35.019Z,11.51
2017-09-28T00:43:39.360Z,11.51
2017-09-28T00:43:43.571Z,11.51
2017-09-28T00:43:47.907Z,11.5
2017-09-28T00:43:51.870Z,11.51
2017-09-28T00:43:56.090Z,11.49
2017-09-28T00:43:59.924Z,11.49
2017-09-28T00:44:04.515Z,11.49
2017-09-28T00:44:08.479Z,11.49
2017-09-28T00:44:12.692Z,11.48
2017-09-28T00:44:16.903Z,11.49
2017-09-28T00:44:21.241Z,11.48
2017-09-28T00:44:25.205Z,11.48
2017-09-28T00:44:29.291Z,11.48
2017-09-28T00:44:33.376Z,11.47
2017-09-28T00:44:37.462Z,11.47
2017-09-28T00:44:41.548Z,11.47
2017-09-28T00:44:45.760Z,11.47
2017-09-28T00:44:49.973Z,11.46
2017-09-28T00:44:54.322Z,11.47
2017-09-28T00:44:58.541Z,11.46
2017-09-28T00:45:02.374Z,11.45
2017-09-28T00:45:06.586Z,11.46
2017-09-28T00:45:10.808Z,11.45
2017-09-28T00:45:14.772Z,11.45
2017-09-28T00:45:18.978Z,11.45
2017-09-28T00:45:23.068Z,11.44
2017-09-28T00:45:27.312Z,11.44
2017-09-28T00:45:31.270Z,11.44
2017-09-28T00:45:35.109Z,11.43
2017-09-28T00:45:39.198Z,11.44
2017-09-28T00:45:43.158Z,11.43
2017-09-28T00:45:47.238Z,11.42
2017-09-28T00:45:51.196Z,11.43
2017-09-28T00:45:55.409Z,11.43
2017-09-28T00:45:59.499Z,11.42
2017-09-28T00:46:03.587Z,11.41
2017-09-28T00:46:07.669Z,11.42
2017-09-28T00:46:12.264Z,11.42
2017-09-28T00:46:16.230Z,11.42
2017-09-28T00:46:20.196Z,11.41
2017-09-28T00:46:24.783Z,11.4
2017-09-28T00:46:28.866Z,11.4
2017-09-28T00:46:33.202Z,11.41
2017-09-28T00:46:37.660Z,11.4
2017-09-28T00:46:41.745Z,11.39
2017-09-28T00:46:45.832Z,11.39
2017-09-28T00:46:50.042Z,11.39
2017-09-28T00:46:54.259Z,11.39
2017-09-28T00:46:58.345Z,11.39
2017-09-28T00:47:02.431Z,11.38
2017-09-28T00:47:06.770Z,11.38
2017-09-28T00:47:10.990Z,11.38
2017-09-28T00:47:15.576Z,11.38
2017-09-28T00:47:20.040Z,11.37
2017-09-28T00:47:24.382Z,11.36
2017-09-28T00:47:28.590Z,11.36
2017-09-28T00:47:32.549Z,11.36
2017-09-28T00:47:36.507Z,11.36
2017-09-28T00:47:40.985Z,11.35
2017-09-28T00:47:45.328Z,11.35
2017-09-28T00:47:49.789Z,11.35
2017-09-28T00:47:53.748Z,11.34
2017-09-28T00:47:57.837Z,11.35
2017-09-28T00:48:02.056Z,11.34
2017-09-28T00:48:06.526Z,11.34
2017-09-28T00:48:10.741Z,11.33
2017-09-28T00:48:14.955Z,11.32
2017-09-28T00:48:18.914Z,11.33
2017-09-28T00:48:23.256Z,11.33
2017-09-28T00:48:27.215Z,11.32
2017-09-28T00:48:31.550Z,11.32
2017-09-28T00:48:35.768Z,11.32
2017-09-28T00:48:39.990Z,11.31
2017-09-28T00:48:43.952Z,11.31
2017-09-28T00:48:48.286Z,11.3
2017-09-28T00:48:52.499Z,11.29
2017-09-28T00:48:56.589Z,11.3
2017-09-28T00:49:00.801Z,11.29
2017-09-28T00:49:05.169Z,11.29
2017-09-28T00:49:09.507Z,11.28
2017-09-28T00:49:13.883Z,11.27
2017-09-28T00:49:18.346Z,11.27
2017-09-28T00:49:22.306Z,11.26
2017-09-28T00:49:26.518Z,11.25
2017-09-28T00:49:30.611Z,11.26
2017-09-28T00:49:34.818Z,11.26
2017-09-28T00:49:38.785Z,11.24
2017-09-28T00:49:42.751Z,11.24
2017-09-28T00:49:46.964Z,11.24
2017-09-28T00:49:51.186Z,11.23
2017-09-28T00:49:55.287Z,11.24
2017-09-28T00:49:59.373Z,11.23
2017-09-28T00:50:03.458Z,11.22
2017-09-28T00:50:07.801Z,11.22
2017-09-28T00:50:11.884Z,11.22
2017-09-28T00:50:16.218Z,11.21
2017-09-28T00:50:20.305Z,11.21
2017-09-28T00:50:24.510Z,11.2
2017-09-28T00:50:28.469Z,11.2
2017-09-28T00:50:32.555Z,11.2
2017-09-28T00:50:36.765Z,11.19
2017-09-28T00:50:40.859Z,11.18
2017-09-28T00:50:45.073Z,11.18
2017-09-28T00:50:49.155Z,11.18
2017-09-28T00:50:53.244Z,11.17
2017-09-28T00:50:57.325Z,11.17
2017-09-28T00:51:01.418Z,11.15
2017-09-28T00:51:05.756Z,11.16
2017-09-28T00:51:09.969Z,11.15
2017-09-28T00:51:14.181Z,11.14
2017-09-28T00:51:18.138Z,11.14
2017-09-28T00:51:22.223Z,11.13
2017-09-28T00:51:26.318Z,11.13
2017-09-28T00:51:30.666Z,11.13
2017-09-28T00:51:34.636Z,11.12
2017-09-28T00:51:38.472Z,11.11
2017-09-28T00:51:42.561Z,11.11
2017-09-28T00:51:46.649Z,11.1
2017-09-28T00:51:50.488Z,11.09
2017-09-28T00:51:54.573Z,11.1
2017-09-28T00:51:58.662Z,11.1
2017-09-28T00:52:02.623Z,11.1
2017-09-28T00:52:06.836Z,11.09
2017-09-28T00:52:10.921Z,11.08
2017-09-28T00:52:15.007Z,11.08
2017-09-28T00:52:19.222Z,11.07
2017-09-28T00:52:23.434Z,11.07
2017-09-28T00:52:27.777Z,11.06
2017-09-28T00:52:31.866Z,11.06
2017-09-28T00:52:36.072Z,11.06
2017-09-28T00:52:40.537Z,11.05
2017-09-28T00:52:44.497Z,11.04
2017-09-28T00:52:48.590Z,11.04
2017-09-28T00:52:52.556Z,11.04
2017-09-28T00:52:56.516Z,11.03
2017-09-28T00:53:00.481Z,11.03
2017-09-28T00:53:04.941Z,11.03
2017-09-28T00:53:09.150Z,11.03
2017-09-28T00:53:13.267Z,11.01
2017-09-28T00:53:17.472Z,11.01
2017-09-28T00:53:21.678Z,11.01
2017-09-28T00:53:25.888Z,11
2017-09-28T00:53:29.975Z,11
2017-09-28T00:53:34.185Z,10.99
2017-09-28T00:53:38.398Z,10.99
2017-09-28T00:53:42.486Z,10.99
2017-09-28T00:53:46.579Z,10.98
2017-09-28T00:53:50.665Z,10.98
2017-09-28T00:53:54.620Z,10.97
2017-09-28T00:53:58.581Z,10.97
2017-09-28T00:54:02.665Z,10.97
2017-09-28T00:54:06.997Z,10.96
2017-09-28T00:54:11.206Z,10.95
2017-09-28T00:54:15.712Z,10.95
2017-09-28T00:54:19.797Z,10.95
2017-09-28T00:54:23.882Z,10.95
2017-09-28T00:54:27.968Z,10.95
2017-09-28T00:54:32.326Z,10.94
2017-09-28T00:54:36.284Z,10.94
2017-09-28T00:54:40.366Z,10.93